createdAt,value
2018-08-27T00:01:34.954Z,78.90
2018-08-27T00:04:13.665Z,79.10
2018-08-27T00:06:55.973Z,79.40
2018-08-27T00:09:32.093Z,80.10
2018-08-27T00:12:11.193Z,80.40
2018-08-27T00:14:59.195Z,81.00
2018-08-27T00:17:30.522Z,82.00
2018-08-27T00:20:15.045Z,83.10
2018-08-27T00:22:53.193Z,84.50
2018-08-27T00:25:31.073Z,86.90
2018-08-27T00:28:12.447Z,87.90
2018-08-27T00:30:55.350Z,88.10
2018-08-27T00:33:32.383Z,88.80
2018-08-27T00:36:12.470Z,89.20
2018-08-27T00:38:57.657Z,89.40
2018-08-27T00:41:27.549Z,89.60
2018-08-27T00:44:07.427Z,90.00
2018-08-27T00:46:35.747Z,90.20
2018-08-27T00:49:09.777Z,90.60
2018-08-27T00:51:50.675Z,90.90
2018-08-27T00:54:32.949Z,91.70
2018-08-27T00:57:11.912Z,92.30
2018-08-27T00:59:50.667Z,92.80
2018-08-27T01:02:29.422Z,93.20
2018-08-27T01:05:10.881Z,93.80
2018-08-27T01:07:55.196Z,94.10
2018-08-27T01:10:28.913Z,94.40
2018-08-27T01:13:11.012Z,94.70
2018-08-27T01:15:50.682Z,94.80
2018-08-27T01:18:30.402Z,95.00
2018-08-27T01:21:09.534Z,95.20
2018-08-27T01:23:45.330Z,95.40
2018-08-27T01:26:13.594Z,95.90
2018-08-27T01:29:07.858Z,96.30
2018-08-27T01:31:36.437Z,96.50
2018-08-27T01:34:21.006Z,96.70
2018-08-27T01:37:06.807Z,96.90
2018-08-27T01:39:35.136Z,97.00
2018-08-27T01:42:09.775Z,97.20
2018-08-27T01:44:47.760Z,97.50
2018-08-27T01:47:29.316Z,97.60
2018-08-27T01:50:12.021Z,97.70
2018-08-27T01:52:57.058Z,97.80
2018-08-27T01:55:28.589Z,97.70
2018-08-27T01:58:08.996Z,97.70
2018-08-27T02:00:43.849Z,97.60
2018-08-27T02:12:09.553Z,97.50
2018-08-27T02:14:44.870Z,97.40
2018-08-27T02:17:31.356Z,97.40
2018-08-27T02:20:12.787Z,97.30
2018-08-27T02:22:55.872Z,97.30
2018-08-27T02:25:29.417Z,97.30
2018-08-27T02:28:25.748Z,97.30
2018-08-27T02:31:09.157Z,97.20
2018-08-27T02:33:41.430Z,97.30
2018-08-27T02:36:25.796Z,97.60
2018-08-27T02:39:12.643Z,97.90
2018-08-27T02:41:54.562Z,98.30
2018-08-27T02:44:30.633Z,98.60
2018-08-27T02:47:14.002Z,98.80
2018-08-27T02:49:57.312Z,99.20
2018-08-27T02:52:30.913Z,99.40
2018-08-27T02:55:17.065Z,99.50
2018-08-27T02:57:55.494Z,99.60
2018-08-27T03:00:29.716Z,99.90
2018-08-27T03:03:11.720Z,99.90
2018-08-27T03:05:58.173Z,99.90
2018-08-27T03:08:31.373Z,99.90
2018-08-27T03:11:16.825Z,99.90
2018-08-27T03:13:56.877Z,99.90
2018-08-27T03:16:29.147Z,99.90
2018-08-27T03:19:11.973Z,99.90
2018-08-27T03:21:57.948Z,99.90
2018-08-27T03:24:33.076Z,99.90
2018-08-27T03:27:11.793Z,99.90
2018-08-27T03:29:52.860Z,99.90
2018-08-27T03:32:33.730Z,99.90
2018-08-27T03:35:13.750Z,99.90
2018-08-27T03:37:59.187Z,99.90
2018-08-27T03:40:34.051Z,99.90
2018-08-27T03:43:12.899Z,99.90
2018-08-27T03:45:54.125Z,99.90
2018-08-27T03:48:32.753Z,99.90
2018-08-27T03:51:13.194Z,99.90
2018-08-27T03:56:32.275Z,99.90
2018-08-27T03:59:12.925Z,99.90
2018-08-27T04:02:02.538Z,99.90
2018-08-27T04:04:32.240Z,99.90
2018-08-27T04:07:13.706Z,99.90
2018-08-27T04:09:59.481Z,99.90
2018-08-27T04:12:31.935Z,99.90
2018-08-27T04:15:14.541Z,99.90
2018-08-27T04:17:56.610Z,99.90
2018-08-27T04:23:12.509Z,99.90
2018-08-27T04:25:55.879Z,99.90
2018-08-27T04:28:30.785Z,99.90
2018-08-27T04:31:11.965Z,99.90
2018-08-27T04:33:42.779Z,99.90
2018-08-27T04:36:25.282Z,99.90
2018-08-27T04:39:12.224Z,99.90
2018-08-27T04:41:53.333Z,99.90
2018-08-27T04:44:30.527Z,99.90
2018-08-27T04:47:15.689Z,99.90
2018-08-27T04:49:54.895Z,99.90
2018-08-27T04:52:31.118Z,99.90
2018-08-27T04:55:14.073Z,99.90
2018-08-27T04:57:57.795Z,99.90
2018-08-27T05:00:38.872Z,99.90
2018-08-27T05:03:17.629Z,99.90
2018-08-27T05:05:58.131Z,99.90
2018-08-27T05:08:32.440Z,99.90
2018-08-27T05:11:11.309Z,99.90
2018-08-27T05:13:54.096Z,99.90
2018-08-27T05:16:28.555Z,99.90
2018-08-27T05:19:09.493Z,99.90
2018-08-27T05:21:44.303Z,99.90
2018-08-27T05:24:32.240Z,99.90
2018-08-27T05:27:11.946Z,99.90
2018-08-27T05:32:31.629Z,99.90
2018-08-27T05:35:12.670Z,99.90
2018-08-27T05:37:51.745Z,99.90
2018-08-27T05:40:29.534Z,99.90
2018-08-27T05:43:11.736Z,99.90
2018-08-27T05:45:55.107Z,99.90
2018-08-27T05:48:31.317Z,99.90
2018-08-27T05:51:10.089Z,99.90
2018-08-27T05:53:47.989Z,99.90
2018-08-27T05:56:35.162Z,99.90
2018-08-27T05:59:14.091Z,99.90
2018-08-27T06:01:53.130Z,99.90
2018-08-27T06:04:32.375Z,99.90
2018-08-27T06:07:13.329Z,99.90
2018-08-27T06:09:58.517Z,99.90
2018-08-27T06:12:27.731Z,99.90
2018-08-27T06:15:12.277Z,99.90
2018-08-27T06:17:52.449Z,99.90
2018-08-27T06:20:32.493Z,99.90
2018-08-27T06:23:13.289Z,99.90
2018-08-27T06:25:58.337Z,99.90
2018-08-27T06:28:31.594Z,99.90
2018-08-27T06:31:12.853Z,99.90
2018-08-27T06:33:41.295Z,99.90
2018-08-27T06:36:09.816Z,99.90
2018-08-27T06:38:47.912Z,99.90
2018-08-27T06:41:28.774Z,99.90
2018-08-27T06:44:10.262Z,99.90
2018-08-27T06:46:44.995Z,99.90
2018-08-27T06:49:28.585Z,99.90
2018-08-27T06:52:07.309Z,99.90
2018-08-27T06:54:35.784Z,99.90
2018-08-27T06:57:12.141Z,99.90
2018-08-27T06:59:54.498Z,99.90
2018-08-27T07:02:31.001Z,99.90
2018-08-27T07:05:15.365Z,99.90
2018-08-27T07:07:55.480Z,99.90
2018-08-27T07:10:35.825Z,99.90
2018-08-27T07:13:10.698Z,99.90
2018-08-27T07:15:45.985Z,99.90
2018-08-27T07:18:27.218Z,99.90
2018-08-27T07:21:04.644Z,99.90
2018-08-27T07:23:33.366Z,99.90
2018-08-27T07:26:15.310Z,99.90
2018-08-27T07:28:53.060Z,99.90
2018-08-27T07:31:32.974Z,99.90
2018-08-27T07:34:12.610Z,99.90
2018-08-27T07:36:58.637Z,99.90
2018-08-27T07:39:32.996Z,99.90
2018-08-27T07:42:14.976Z,99.90
2018-08-27T07:44:56.419Z,99.90
2018-08-27T07:47:31.424Z,99.90
2018-08-27T07:50:14.048Z,99.90
2018-08-27T07:52:55.966Z,99.90
2018-08-27T07:55:34.538Z,99.90
2018-08-27T07:58:03.167Z,99.90
2018-08-27T08:00:35.243Z,99.90
2018-08-27T08:03:10.737Z,99.90
2018-08-27T08:05:43.558Z,99.90
2018-08-27T08:08:31.150Z,99.90
2018-08-27T08:11:14.478Z,99.90
2018-08-27T08:14:07.082Z,99.90
2018-08-27T08:16:35.748Z,99.90
2018-08-27T08:19:16.404Z,99.90
2018-08-27T08:21:52.296Z,99.90
2018-08-27T08:24:33.786Z,99.90
2018-08-27T08:27:02.788Z,99.90
2018-08-27T08:29:34.355Z,99.90
2018-08-27T08:32:11.342Z,99.90
2018-08-27T08:37:31.576Z,99.90
2018-08-27T08:40:13.938Z,99.90
2018-08-27T08:42:51.747Z,99.90
2018-08-27T08:48:13.714Z,99.90
2018-08-27T08:50:52.098Z,99.90
2018-08-27T08:53:32.353Z,99.90
2018-08-27T08:56:01.353Z,99.90
2018-08-27T08:58:30.123Z,99.90
2018-08-27T09:01:13.695Z,99.90
2018-08-27T09:03:54.933Z,99.90
2018-08-27T09:06:29.919Z,99.90
2018-08-27T09:09:14.106Z,99.90
2018-08-27T09:11:58.429Z,99.90
2018-08-27T09:14:32.598Z,99.90
2018-08-27T09:17:15.756Z,99.90
2018-08-27T09:19:53.995Z,99.90
2018-08-27T09:22:31.178Z,99.90
2018-08-27T09:25:15.694Z,99.90
2018-08-27T09:27:58.414Z,99.90
2018-08-27T09:30:30.839Z,99.90
2018-08-27T09:33:02.856Z,99.90
2018-08-27T09:35:36.360Z,99.90
2018-08-27T09:38:15.180Z,99.90
2018-08-27T09:40:57.444Z,99.90
2018-08-27T09:43:30.695Z,99.90
2018-08-27T09:46:11.130Z,99.90
2018-08-27T09:48:49.736Z,99.90
2018-08-27T09:51:32.561Z,99.90
2018-08-27T09:54:13.504Z,99.90
2018-08-27T09:56:52.920Z,99.90
2018-08-27T09:59:33.265Z,99.90
2018-08-27T10:02:12.506Z,99.90
2018-08-27T10:05:08.358Z,99.90
2018-08-27T10:07:38.831Z,99.90
2018-08-27T10:10:28.061Z,99.90
2018-08-27T10:13:08.917Z,99.90
2018-08-27T10:15:38.096Z,99.90
2018-08-27T10:18:13.450Z,99.90
2018-08-27T10:23:31.055Z,99.90
2018-08-27T10:26:14.382Z,99.90
2018-08-27T10:28:52.159Z,99.90
2018-08-27T10:34:03.902Z,99.90
2018-08-27T10:36:33.939Z,99.90
2018-08-27T10:39:16.575Z,99.90
2018-08-27T10:41:55.648Z,99.90
2018-08-27T10:44:32.249Z,99.90
2018-08-27T10:47:12.502Z,99.90
2018-08-27T10:49:59.690Z,99.90
2018-08-27T10:52:31.733Z,99.90
2018-08-27T10:55:14.823Z,99.90
2018-08-27T10:57:57.718Z,99.90
2018-08-27T11:00:35.354Z,99.90
2018-08-27T11:03:16.029Z,99.90
2018-08-27T11:05:59.452Z,99.90
2018-08-27T11:08:31.787Z,99.90
2018-08-27T11:11:15.207Z,99.90
2018-08-27T11:13:53.663Z,99.90
2018-08-27T11:16:34.245Z,99.90
2018-08-27T11:19:12.699Z,99.90
2018-08-27T11:21:50.281Z,99.90
2018-08-27T11:24:32.447Z,99.90
2018-08-27T11:27:14.679Z,99.90
2018-08-27T11:29:53.851Z,99.90
2018-08-27T11:32:38.981Z,99.90
2018-08-27T11:35:14.517Z,99.90
2018-08-27T11:37:59.603Z,99.90
2018-08-27T11:40:30.565Z,99.90
2018-08-27T11:43:13.508Z,99.90
2018-08-27T11:45:58.937Z,99.90
2018-08-27T11:48:32.267Z,99.90
2018-08-27T11:51:11.527Z,99.90
2018-08-27T11:53:59.932Z,99.90
2018-08-27T11:56:30.613Z,99.90
2018-08-27T11:59:11.443Z,99.90
2018-08-27T12:01:49.200Z,99.90
2018-08-27T12:04:31.420Z,99.90
2018-08-27T12:07:11.527Z,99.90
2018-08-27T12:09:53.938Z,99.90
2018-08-27T12:12:32.656Z,99.90
2018-08-27T12:15:15.986Z,99.90
2018-08-27T12:17:50.785Z,99.90
2018-08-27T12:26:01.474Z,99.90
2018-08-27T12:29:28.688Z,99.90
2018-08-27T12:31:58.658Z,99.90
2018-08-27T12:37:59.940Z,99.90
2018-08-27T12:40:38.348Z,99.90
2018-08-27T12:43:07.315Z,99.90
2018-08-27T12:45:43.484Z,99.90
2018-08-27T12:51:12.572Z,99.90
2018-08-27T12:53:52.458Z,99.90
2018-08-27T12:56:21.017Z,99.90
2018-08-27T13:01:35.171Z,99.90
2018-08-27T13:07:12.530Z,99.90
2018-08-27T13:09:59.485Z,99.90
2018-08-27T13:12:28.674Z,99.90
2018-08-27T13:14:58.269Z,99.90
2018-08-27T13:17:34.154Z,99.90
2018-08-27T13:20:13.237Z,99.90
2018-08-27T13:22:54.705Z,99.90
2018-08-27T13:28:10.154Z,99.90
2018-08-27T13:30:46.197Z,99.90
2018-08-27T13:37:21.760Z,99.90
2018-08-27T13:40:10.834Z,99.90
2018-08-27T13:43:06.573Z,99.90
2018-08-27T13:49:15.720Z,99.90
2018-08-27T13:55:33.506Z,99.90
2018-08-27T14:01:29.659Z,99.90
2018-08-27T14:04:41.774Z,99.90
2018-08-27T14:27:43.285Z,99.90
2018-08-27T14:30:11.989Z,99.90
2018-08-27T14:32:59.784Z,99.90
2018-08-27T14:38:32.498Z,99.90
2018-08-27T14:44:06.446Z,99.90
2018-08-27T14:46:34.775Z,99.90
2018-08-27T14:49:13.723Z,99.90
2018-08-27T14:51:58.920Z,99.90
2018-08-27T14:58:00.422Z,99.90
2018-08-27T15:00:35.148Z,99.90
2018-08-27T15:03:17.858Z,99.90
2018-08-27T15:05:55.978Z,99.90
2018-08-27T15:08:32.848Z,99.90
2018-08-27T15:11:16.610Z,99.90
2018-08-27T15:14:26.348Z,99.90
2018-08-27T15:16:55.392Z,99.90
2018-08-27T15:19:33.528Z,99.90
2018-08-27T15:25:15.679Z,99.90
2018-08-27T15:27:43.993Z,99.90
2018-08-27T15:32:55.621Z,99.90
2018-08-27T15:35:35.919Z,99.90
2018-08-27T15:38:17.612Z,99.90
2018-08-27T15:40:56.676Z,99.90
2018-08-27T15:43:34.157Z,99.90
2018-08-27T15:49:11.366Z,99.90
2018-08-27T15:51:55.448Z,99.90
2018-08-27T15:54:32.088Z,99.90
2018-08-27T15:57:15.492Z,99.90
2018-08-27T15:59:53.298Z,99.90
2018-08-27T16:02:32.352Z,99.90
2018-08-27T16:05:17.539Z,99.90
2018-08-27T16:10:33.664Z,99.90
2018-08-27T16:13:03.813Z,99.90
2018-08-27T16:15:37.158Z,99.90
2018-08-27T16:18:15.219Z,99.90
2018-08-27T16:20:52.045Z,99.90
2018-08-27T16:23:34.709Z,99.90
2018-08-27T16:26:03.800Z,99.90
2018-08-27T16:28:33.556Z,99.90
2018-08-27T16:31:14.693Z,99.90
2018-08-27T16:33:46.111Z,99.90
2018-08-27T16:36:14.846Z,99.90
2018-08-27T16:38:57.424Z,99.90
2018-08-27T16:41:36.929Z,99.90
2018-08-27T16:44:20.700Z,99.90
2018-08-27T16:47:08.264Z,99.90
2018-08-27T16:49:36.779Z,99.90
2018-08-27T16:52:18.030Z,99.90
2018-08-27T16:54:59.124Z,99.90
2018-08-27T16:57:31.455Z,99.90
2018-08-27T17:00:16.138Z,99.90
2018-08-27T17:03:00.583Z,99.90
2018-08-27T17:05:32.919Z,99.90
2018-08-27T17:08:02.328Z,99.90
2018-08-27T17:10:34.940Z,99.90
2018-08-27T17:13:05.428Z,99.90
2018-08-27T17:15:43.205Z,99.90
2018-08-27T17:18:29.553Z,99.90
2018-08-27T17:21:14.299Z,99.90
2018-08-27T17:23:58.258Z,99.90
2018-08-27T17:26:43.433Z,99.90
2018-08-27T17:32:11.787Z,99.90
2018-08-27T17:34:50.071Z,99.90
2018-08-27T17:37:31.216Z,99.90
2018-08-27T17:43:12.369Z,99.90
2018-08-27T17:53:01.391Z,99.90
2018-08-27T17:55:37.389Z,99.90
2018-08-27T17:58:06.522Z,99.90
2018-08-27T18:00:34.837Z,99.90
2018-08-27T18:13:14.940Z,99.90
2018-08-27T18:18:35.467Z,99.90
2018-08-27T18:21:20.932Z,99.90
2018-08-27T18:24:09.910Z,99.90
2018-08-27T18:26:43.254Z,99.90
2018-08-27T18:29:22.941Z,99.90
2018-08-27T18:31:51.788Z,99.90
2018-08-27T18:34:20.188Z,99.90
2018-08-27T18:36:48.635Z,99.90
2018-08-27T18:39:29.554Z,99.90
2018-08-27T18:42:03.489Z,99.90
2018-08-27T18:44:33.995Z,99.90
2018-08-27T18:47:03.049Z,99.90
2018-08-27T18:49:36.336Z,99.90
2018-08-27T18:52:57.799Z,99.90
2018-08-27T18:55:38.017Z,99.90
2018-08-27T18:58:06.505Z,99.90
2018-08-27T19:00:36.570Z,99.90
2018-08-27T19:03:13.268Z,99.90
2018-08-27T19:06:01.338Z,99.90
2018-08-27T19:08:34.360Z,99.90
2018-08-27T19:11:18.489Z,99.90
2018-08-27T19:13:47.029Z,99.90
2018-08-27T19:16:15.410Z,99.90
2018-08-27T19:18:53.650Z,99.90
2018-08-27T19:21:44.038Z,99.90
2018-08-27T19:24:12.830Z,99.90
2018-08-27T19:26:58.012Z,99.90
2018-08-27T19:29:33.449Z,99.90
2018-08-27T19:32:13.377Z,99.90
2018-08-27T19:34:54.645Z,99.90
2018-08-27T19:37:39.136Z,99.90
2018-08-27T19:40:12.130Z,99.90
2018-08-27T19:42:50.854Z,99.90
2018-08-27T19:45:39.986Z,99.90
2018-08-27T19:48:16.869Z,99.90
2018-08-27T19:50:45.424Z,99.90
2018-08-27T19:53:13.954Z,99.90
2018-08-27T19:55:54.598Z,99.90
2018-08-27T19:58:37.098Z,99.90
2018-08-27T20:04:10.384Z,99.90
2018-08-27T20:06:43.042Z,99.90
2018-08-27T20:12:15.802Z,99.90
2018-08-27T20:14:59.261Z,99.90
2018-08-27T20:17:34.972Z,99.90
2018-08-27T20:20:23.605Z,99.90
2018-08-27T20:23:14.460Z,99.90
2018-08-27T20:26:24.351Z,99.90
2018-08-27T20:29:10.682Z,99.90
2018-08-27T20:31:45.345Z,99.90
2018-08-27T20:34:14.118Z,99.90
2018-08-27T20:36:58.505Z,99.90
2018-08-27T20:39:32.897Z,99.90
2018-08-27T20:45:48.784Z,99.90
2018-08-27T20:48:53.031Z,99.90
2018-08-27T20:51:39.629Z,99.90
2018-08-27T20:57:50.817Z,99.90
2018-08-27T21:00:58.919Z,99.90
2018-08-27T21:13:37.726Z,99.90
2018-08-27T21:19:47.967Z,99.90
2018-08-27T21:23:06.696Z,99.90
2018-08-27T21:29:17.499Z,99.90
2018-08-27T21:56:57.206Z,99.90
2018-08-27T22:03:10.996Z,99.90
2018-08-27T22:06:12.323Z,99.90
2018-08-27T22:09:25.344Z,99.90
2018-08-27T22:12:27.998Z,99.90
2018-08-27T22:21:18.364Z,99.90
2018-08-27T22:24:09.308Z,99.90
2018-08-27T22:37:16.496Z,99.90
2018-08-27T22:43:30.950Z,99.90
2018-08-27T22:46:44.359Z,99.90
2018-08-27T22:49:51.181Z,99.90
2018-08-27T22:52:57.178Z,99.90
2018-08-27T23:05:52.378Z,99.90
2018-08-27T23:15:07.922Z,99.90
2018-08-27T23:18:11.850Z,99.90
2018-08-27T23:27:18.214Z,99.90
2018-08-27T23:37:17.083Z,99.90
2018-08-27T23:43:12.609Z,99.90
2018-08-27T23:46:16.242Z,99.90
2018-08-27T23:49:29.489Z,99.90
2018-08-27T23:55:43.680Z,99.90
2018-08-27T23:58:57.778Z,99.90
